Metar Cercanos

 

LEPA - Palma De Mallorc, Spain
Distance from station: ONO 38km
Actualización: 16/12/2017 04:00
Few Clouds
Few Clouds
 Viento del NO
Viento: NO 7 km/h
Temperatura: 11°C
Rocío: 5°C
Humedad: 67%
Barómetro: 1010 hPa
Clouds: Few Clouds
Visibility: 10 km
Cloud details: Few Clouds 762 m
2017/12/16 03:00 LEPA 160300Z 32004KT 280V350 9999 FEW025 11/05 Q1010 NOSIG
LEMH - Mahon/Menorca Is, Spain
Distance from station: ENE 105km
Actualización: 16/12/2017 04:00
Despejado
Despejado
 Viento del NO
Viento: NO 9 km/h
Temperatura: 6°C
Sensación frio: 4°C
Rocío: 4°C
Humedad: 87%
Barómetro: 1009 hPa
Clouds: Despejado
Visibility: 8 km
2017/12/16 03:00 LEMH 160300Z AUTO 31005KT 8000 NCD 06/04 Q1009
 
LEIB - Ibiza/Es Codola, Spain
Distance from station: OSO 165km
Actualización: 16/12/2017 04:00
Few Clouds
Few Clouds
 Viento del NNO
Viento: NNO 28 km/h
Temperatura: 12°C
Rocío: 2°C
Humedad: 51%
Barómetro: 1012 hPa
Clouds: Few Clouds
Visibility: 10 km
Cloud details: Few Clouds 914 m
2017/12/16 03:00 LEIB 160300Z 33015KT 9999 FEW030 12/02 Q1012 NOSIG
LEBL - Barcelona Airpor, Spain
Distance from station: NNO 225km
Actualización: 16/12/2017 04:00
Despejado
Despejado
 Viento del N
Viento: N 24 km/h
Temperatura: 7°C
Sensación frio: 3°C
Rocío: 1°C
Humedad: 66%
Barómetro: 1010 hPa
Resumen: Despejado
Visibility: greater than 10 km
2017/12/16 03:00 LEBL 160300Z 36013KT CAVOK 07/01 Q1010 NOSIG
 
LEVC - Valencia (civ/Mi, Spain
Distance from station: NO 188km
Actualización: 16/12/2017 04:00
Despejado
Despejado
 Viento del varies
Viento: varies 4 km/h
Temperatura: 4°C
Rocío: 0°C
Humedad: 75%
Barómetro: 1014 hPa
Resumen: Despejado
Visibility: greater than 10 km
2017/12/16 03:00 LEVC 160300Z VRB02KT CAVOK 04/M00 Q1014 NOSIG
LEGE - Gerona/Costa Bra, Spain
Distance from station: N 276km
Actualización: 16/12/2017 04:00
Parcialmente nuboso
Parcialmente nuboso
 Viento del varies
Viento: varies 4 km/h
Temperatura: 0°C
Rocío: 0°C
Humedad: 100%
Barómetro: 1010 hPa
Clouds: Parcialmente nuboso
Visibility: 7 km
2017/12/16 03:00 LEGE 160300Z VRB02KT 7000 NSC M00/M00 Q1010
 
LEAL - Alicante/El Alte, Spain
Distance from station: OSO 344km
Actualización: 16/12/2017 04:00
Despejado
Despejado
 Viento del NO
Viento: NO 22 km/h
Temperatura: 10°C
Sensación frio: 7°C
Rocío: 1°C
Humedad: 54%
Barómetro: 1013 hPa
Resumen: Despejado
Visibility: greater than 10 km
2017/12/16 03:00 LEAL 160300Z 31012KT CAVOK 10/01 Q1013 NOSIG
LEAM - Almeria Airport, Spain
Distance from station: SSO 56km
Actualización: 16/12/2017 04:00
Cubierto
Cubierto
 Viento del NNE
Viento: NNE 4 km/h
Temperatura: 13°C
Rocío: 11°C
Humedad: 88%
Barómetro: 1012 hPa
Clouds: Cubierto
Visibility: 10 km
Cloud details: Few Clouds 1067 m
Muy nuboso 1707 m
Cubierto 1981 m
2017/12/16 03:00 LEAM 160300Z AUTO 03002KT 9999 FEW035/// BKN056/// OVC065/// 13/11 Q1012
 
LEZG - Zaragoza (mil/Ci, Spain
Distance from station: NO 431km
Actualización: 16/12/2017 04:00
Few Clouds
Few Clouds
 Viento del O
Viento: O 13 km/h
Temperatura: 5°C
Sensación frio: 2°C
Rocío: 1°C
Humedad: 76%
Barómetro: 1016 hPa
Clouds: Few Clouds
Visibility: 10 km
Cloud details: Few Clouds 1219 m
2017/12/16 03:00 LEZG 160300Z 27007KT 9999 FEW040 05/01 Q1016
LEMD - Madrid/Barajas, Spain
Distance from station: ONO 234km
Actualización: 16/12/2017 04:00
Despejado
Despejado
 Viento del ENE
Viento: ENE 2 km/h
Temperatura: 2°C
Rocío: -2°C
Humedad: 75%
Barómetro: 1017 hPa
Resumen: Despejado
Visibility: greater than 10 km
2017/12/16 03:00 LEMD 160300Z 07001KT CAVOK 02/M02 Q1017 NOSIG
 
LEGR - Granada Airport, Spain
Distance from station: OSO 62km
Actualización: 16/12/2017 04:00
Few Clouds
Few Clouds
 Viento del S
Viento: S 6 km/h
Temperatura: 8°C
Rocío: 8°C
Humedad: 100%
Barómetro: 1013 hPa
Clouds: Few Clouds
Visibility: 10 km
Cloud details: Few Clouds 1280 m
2017/12/16 03:00 LEGR 160300Z AUTO 17003KT 9999 FEW042 08/08 Q1013
LEMG - Malaga (civ/Mil), Spain
Distance from station: OSO 227km
Actualización: 16/12/2017 04:00
Parcialmente nuboso
Parcialmente nuboso
 Viento del O
Viento: O 26 km/h
Temperatura: 16°C
Rocío: 9°C
Humedad: 63%
Barómetro: 1013 hPa
Clouds: Parcialmente nuboso
Visibility: 10 km
Cloud details: Few Clouds 762 m
Parcialmente nuboso 1372 m
2017/12/16 03:00 LEMG 160300Z 28014KT 9999 FEW025 SCT045 16/09 Q1013 NOSIG
 
LEZL - Sevilla (civ/Mil, Spain
Distance from station: S 318km
Actualización: 16/12/2017 04:00
Despejado
Despejado
 Viento del N
Viento: N 13 km/h
Temperatura: 10°C
Sensación frio: 8°C
Rocío: 6°C
Humedad: 76%
Barómetro: 1016 hPa
Resumen: Despejado
Visibility: greater than 10 km
2017/12/16 03:00 LEZL 160300Z 35007KT CAVOK 10/06 Q1016 NOSIG
LEVT - Vitoria, Spain
Distance from station: NO 226km
Actualización: 16/12/2017 04:00
Lluvia débil, Cubierto
Lluvia débil, Cubierto
 Viento del O
Viento: O 9 km/h
Temperatura: 3°C
Sensación frio: 0°C
Rocío: 2°C
Humedad: 93%
Barómetro: 1017 hPa
Resumen: Lluvia débil
Clouds: Cubierto
Visibility: 8 km
Cloud details: Parcialmente nuboso 366 m
Cubierto 914 m
2017/12/16 03:00 LEVT 160300Z 26005KT 8000 -RA SCT012 OVC030 03/02 Q1017
 
LEBB - Bilbao/Sondica, Spain
Distance from station: NNO 235km
Actualización: 16/12/2017 04:00
Muy nuboso
Muy nuboso
 Viento del NNO
Viento: NNO 9 km/h
Temperatura: 10°C
Sensación frio: 9°C
Rocío: 5°C
Humedad: 71%
Barómetro: 1018 hPa
Clouds: Muy nuboso
Visibility: 9 km
Cloud details: Few Clouds 1524 m
Muy nuboso 1981 m
2017/12/16 03:00 LEBB 160300Z AUTO 33005KT 290V350 9000 FEW050 BKN065 10/05 Q1018
LESO - San Sebastian/Fu, Spain
Distance from station: N 231km
Actualización: 16/12/2017 04:00
Muy nuboso
Muy nuboso
 Viento del NO
Viento: NO 15 km/h, Racha: 41 km/h
Temperatura: 11°C
Rocío: 3°C
Humedad: 58%
Barómetro: 1016 hPa
Clouds: Muy nuboso
Visibility: 10 km
Cloud details: Parcialmente nuboso 1036 m
Parcialmente nuboso 1250 m
Muy nuboso 1524 m
2017/12/16 03:00 LESO 160300Z AUTO 32008G22KT 280V020 9999 SCT034/// SCT041/// BKN050/// 11/03 Q1016
 
LEVD - Valladolid(Mil/C, Spain
Distance from station: ONO 239km
Actualización: 15/12/2017 21:30
NOT Current
Despejado
Despejado
 Viento del NO
Viento: NO 11 km/h
Temperatura: 1°C
Sensación frio: -2°C
Rocío: -2°C
Humedad: 81%
Barómetro: 1015 hPa
Resumen: Despejado
Visibility: greater than 10 km
2017/12/15 20:30 LEVD 152030Z 31006KT CAVOK 01/M02 Q1015
LESA - Salamanca (civ/M, Spain
Distance from station: ONO 349km
Actualización: 15/12/2017 19:30
NOT Current
Despejado
Despejado
 Viento del N
Viento: N 11 km/h
Temperatura: 3°C
Sensación frio: 0°C
Rocío: 0°C
Humedad: 81%
Barómetro: 1015 hPa
Resumen: Despejado
Visibility: greater than 10 km
2017/12/15 18:30 LESA 151830Z 01006KT CAVOK 03/M00 Q1015
 
LEXJ - Santander/Paraya, Spain
Distance from station: NNO 247km
Actualización: 16/12/2017 01:30
NOT Current
Lluvia débil, Muy nuboso
Lluvia débil, Muy nuboso
 Viento del ONO
Viento: ONO 22 km/h
Temperatura: 10°C
Sensación frio: 7°C
Rocío: 6°C
Humedad: 76%
Barómetro: 1018 hPa
Resumen: Lluvia débil
Clouds: Muy nuboso
Visibility: 7 km
Cloud details: Few Clouds 1128 m
Parcialmente nuboso 1707 m
Muy nuboso 2316 m
2017/12/16 00:30 LEXJ 160030Z AUTO 29012KT 7000 -RA FEW037/// SCT056/// BKN076/// 10/06 Q1018
LEAS - Asturias/Aviles, Spain
Distance from station: NO 214km
Actualización: 16/12/2017 04:00
Muy nuboso
Muy nuboso
 Viento del OSO
Viento: OSO 11 km/h
Temperatura: 8°C
Sensación frio: 6°C
Rocío: 5°C
Humedad: 82%
Barómetro: 1021 hPa
Clouds: Muy nuboso
Visibility: 7 km
Cloud details: Few Clouds 1006 m
Muy nuboso 1768 m
2017/12/16 03:00 LEAS 160300Z AUTO 25006KT 7000 FEW033/// BKN058/// 08/05 Q1021
 
LECO - La Coruna/Alvedr, Spain
Distance from station: ONO 222km
Actualización: 16/12/2017 04:00
Few Clouds
Few Clouds
 Viento del SSO
Viento: SSO 6 km/h
Temperatura: 4°C
Rocío: 4°C
Humedad: 100%
Barómetro: 1023 hPa
Clouds: Few Clouds
Visibility: 8 km
Cloud details: Few Clouds 1097 m
2017/12/16 03:00 LECO 160300Z AUTO 20003KT 8000 FEW036/// 04/04 Q1023
LEVX - Vigo/Peinador, Spain
Distance from station: O 214km
Actualización: 16/12/2017 04:00
Despejado
Despejado
 Viento del varies
Viento: varies 4 km/h
Temperatura: 4°C
Rocío: 3°C
Humedad: 93%
Barómetro: 1022 hPa
Resumen: Despejado
Visibility: greater than 10 km
2017/12/16 03:00 LEVX 160300Z VRB02KT CAVOK 04/03 Q1022 NOSIG